sensor_id;sensor_type;location;lat;lon;timestamp;pressure;altitude;pressure_sealevel;temperature;humidity
15634;BME280;14654;48.898;8.308;2023-02-28T00:00:08;101125.06;;;-1.67;89.80
15634;BME280;14654;48.898;8.308;2023-02-28T00:02:39;101121.75;;;-1.66;89.88
15634;BME280;14654;48.898;8.308;2023-02-28T00:05:05;101129.97;;;-1.70;90.18
15634;BME280;14654;48.898;8.308;2023-02-28T00:07:31;101117.22;;;-1.72;89.69
15634;BME280;14654;48.898;8.308;2023-02-28T00:09:56;101117.75;;;-1.77;89.99
15634;BME280;14654;48.898;8.308;2023-02-28T00:12:22;101125.13;;;-1.82;90.58
15634;BME280;14654;48.898;8.308;2023-02-28T00:14:48;101118.56;;;-1.78;90.21
15634;BME280;14654;48.898;8.308;2023-02-28T00:17:13;101123.44;;;-1.81;90.36
15634;BME280;14654;48.898;8.308;2023-02-28T00:19:38;101120.56;;;-1.88;90.80
15634;BME280;14654;48.898;8.308;2023-02-28T00:22:04;101124.44;;;-1.94;90.85
15634;BME280;14654;48.898;8.308;2023-02-28T00:24:29;101133.00;;;-1.92;90.51
15634;BME280;14654;48.898;8.308;2023-02-28T00:26:55;101125.94;;;-1.98;91.04
15634;BME280;14654;48.898;8.308;2023-02-28T00:29:20;101122.44;;;-2.00;90.82
15634;BME280;14654;48.898;8.308;2023-02-28T00:31:45;101118.78;;;-2.05;90.72
15634;BME280;14654;48.898;8.308;2023-02-28T00:34:10;101123.84;;;-2.05;90.79
15634;BME280;14654;48.898;8.308;2023-02-28T00:36:36;101121.22;;;-2.07;90.50
15634;BME280;14654;48.898;8.308;2023-02-28T00:39:01;101118.59;;;-2.08;90.60
15634;BME280;14654;48.898;8.308;2023-02-28T00:41:26;101131.28;;;-2.08;90.85
15634;BME280;14654;48.898;8.308;2023-02-28T00:43:52;101126.09;;;-2.10;91.00
15634;BME280;14654;48.898;8.308;2023-02-28T00:46:17;101130.25;;;-2.12;90.99
15634;BME280;14654;48.898;8.308;2023-02-28T00:48:42;101128.50;;;-2.13;91.09
15634;BME280;14654;48.898;8.308;2023-02-28T00:51:08;101131.72;;;-2.16;91.24
15634;BME280;14654;48.898;8.308;2023-02-28T00:53:33;101120.78;;;-2.15;90.83
15634;BME280;14654;48.898;8.308;2023-02-28T00:55:59;101122.53;;;-2.13;91.18
15634;BME280;14654;48.898;8.308;2023-02-28T00:58:24;101129.28;;;-2.14;90.73
15634;BME280;14654;48.898;8.308;2023-02-28T01:00:51;101125.97;;;-2.13;90.88
15634;BME280;14654;48.898;8.308;2023-02-28T01:03:18;101133.47;;;-2.15;90.62
15634;BME280;14654;48.898;8.308;2023-02-28T01:05:45;101132.16;;;-2.08;90.73
15634;BME280;14654;48.898;8.308;2023-02-28T01:08:11;101125.06;;;-2.13;90.95
15634;BME280;14654;48.898;8.308;2023-02-28T01:10:36;101122.34;;;-2.17;91.42
15634;BME280;14654;48.898;8.308;2023-02-28T01:13:03;101126.81;;;-2.12;91.14
15634;BME280;14654;48.898;8.308;2023-02-28T01:15:28;101121.69;;;-2.14;91.13
15634;BME280;14654;48.898;8.308;2023-02-28T01:17:54;101118.19;;;-2.16;91.17
15634;BME280;14654;48.898;8.308;2023-02-28T01:20:19;101119.13;;;-2.14;91.07
15634;BME280;14654;48.898;8.308;2023-02-28T01:22:45;101122.34;;;-2.17;91.08
15634;BME280;14654;48.898;8.308;2023-02-28T01:25:10;101118.00;;;-2.19;91.50
15634;BME280;14654;48.898;8.308;2023-02-28T01:27:36;101126.56;;;-2.17;91.53
15634;BME280;14654;48.898;8.308;2023-02-28T01:30:02;101128.84;;;-2.22;91.69
15634;BME280;14654;48.898;8.308;2023-02-28T01:32:27;101129.00;;;-2.19;91.15
15634;BME280;14654;48.898;8.308;2023-02-28T01:34:53;101114.69;;;-2.18;91.41
15634;BME280;14654;48.898;8.308;2023-02-28T01:37:18;101125.44;;;-2.22;91.57
15634;BME280;14654;48.898;8.308;2023-02-28T01:39:44;101122.03;;;-2.23;91.41
15634;BME280;14654;48.898;8.308;2023-02-28T01:42:12;101128.84;;;-2.22;91.56
15634;BME280;14654;48.898;8.308;2023-02-28T01:45:18;101118.53;;;-2.25;91.71
15634;BME280;14654;48.898;8.308;2023-02-28T01:47:46;101117.75;;;-2.24;91.61
15634;BME280;14654;48.898;8.308;2023-02-28T01:50:16;101119.25;;;-2.27;91.90
15634;BME280;14654;48.898;8.308;2023-02-28T01:52:43;101127.63;;;-2.28;91.70
15634;BME280;14654;48.898;8.308;2023-02-28T01:55:11;101116.72;;;-2.27;91.65
15634;BME280;14654;48.898;8.308;2023-02-28T01:57:46;101114.53;;;-2.36;92.00
15634;BME280;14654;48.898;8.308;2023-02-28T02:00:15;101116.16;;;-2.37;92.27
15634;BME280;14654;48.898;8.308;2023-02-28T02:02:46;101114.34;;;-2.39;91.96
15634;BME280;14654;48.898;8.308;2023-02-28T02:05:18;101115.84;;;-2.43;92.50
15634;BME280;14654;48.898;8.308;2023-02-28T02:07:46;101110.47;;;-2.48;92.78
15634;BME280;14654;48.898;8.308;2023-02-28T02:10:14;101109.81;;;-2.45;92.96
15634;BME280;14654;48.898;8.308;2023-02-28T02:12:48;101107.94;;;-2.48;93.24
15634;BME280;14654;48.898;8.308;2023-02-28T02:15:22;101103.66;;;-2.49;93.37
15634;BME280;14654;48.898;8.308;2023-02-28T02:17:52;101108.72;;;-2.49;93.42
15634;BME280;14654;48.898;8.308;2023-02-28T02:23:17;101106.19;;;-2.49;93.27
15634;BME280;14654;48.898;8.308;2023-02-28T02:34:43;101107.94;;;-2.63;94.15
15634;BME280;14654;48.898;8.308;2023-02-28T02:43:02;101100.69;;;-2.71;94.95
15634;BME280;14654;48.898;8.308;2023-02-28T02:45:45;101100.69;;;-2.71;95.28
15634;BME280;14654;48.898;8.308;2023-02-28T02:48:17;101107.31;;;-2.73;95.58
15634;BME280;14654;48.898;8.308;2023-02-28T02:50:49;101104.59;;;-2.77;95.77
15634;BME280;14654;48.898;8.308;2023-02-28T02:53:18;101114.56;;;-2.80;96.06
15634;BME280;14654;48.898;8.308;2023-02-28T02:55:48;101116.22;;;-2.80;96.40
15634;BME280;14654;48.898;8.308;2023-02-28T02:58:22;101106.63;;;-2.86;96.53
15634;BME280;14654;48.898;8.308;2023-02-28T03:00:53;101114.13;;;-2.87;96.99
15634;BME280;14654;48.898;8.308;2023-02-28T03:03:21;101122.00;;;-2.83;96.86
15634;BME280;14654;48.898;8.308;2023-02-28T03:05:55;101112.91;;;-2.79;96.85
15634;BME280;14654;48.898;8.308;2023-02-28T03:08:22;101114.47;;;-2.81;97.06
15634;BME280;14654;48.898;8.308;2023-02-28T03:11:10;101112.47;;;-2.87;97.03
15634;BME280;14654;48.898;8.308;2023-02-28T03:14:08;101122.66;;;-2.85;97.39
15634;BME280;14654;48.898;8.308;2023-02-28T03:17:03;101120.13;;;-2.85;97.69
15634;BME280;14654;48.898;8.308;2023-02-28T03:19:47;101109.34;;;-2.83;97.79
15634;BME280;14654;48.898;8.308;2023-02-28T03:28:08;101108.03;;;-2.76;97.84
15634;BME280;14654;48.898;8.308;2023-02-28T03:30:40;101106.47;;;-2.74;97.71
15634;BME280;14654;48.898;8.308;2023-02-28T03:33:14;101105.41;;;-2.63;97.34
15634;BME280;14654;48.898;8.308;2023-02-28T03:35:48;101101.75;;;-2.53;97.10
15634;BME280;14654;48.898;8.308;2023-02-28T03:38:19;101104.53;;;-2.48;97.01
15634;BME280;14654;48.898;8.308;2023-02-28T03:40:50;101104.03;;;-2.42;96.88
15634;BME280;14654;48.898;8.308;2023-02-28T03:43:21;101098.53;;;-2.35;96.43
15634;BME280;14654;48.898;8.308;2023-02-28T03:45:49;101092.91;;;-2.30;96.12
15634;BME280;14654;48.898;8.308;2023-02-28T03:50:45;101103.63;;;-2.19;95.94
15634;BME280;14654;48.898;8.308;2023-02-28T03:53:27;101091.50;;;-2.09;95.74
15634;BME280;14654;48.898;8.308;2023-02-28T03:56:03;101099.34;;;-2.05;95.07
15634;BME280;14654;48.898;8.308;2023-02-28T03:58:55;101096.28;;;-1.99;95.11
15634;BME280;14654;48.898;8.308;2023-02-28T04:01:30;101100.63;;;-1.96;94.76
15634;BME280;14654;48.898;8.308;2023-02-28T04:03:56;101091.72;;;-1.90;94.67
15634;BME280;14654;48.898;8.308;2023-02-28T04:06:23;101090.75;;;-1.92;94.70
15634;BME280;14654;48.898;8.308;2023-02-28T04:08:50;101092.66;;;-1.88;94.52
15634;BME280;14654;48.898;8.308;2023-02-28T04:13:46;101093.72;;;-1.84;94.98
15634;BME280;14654;48.898;8.308;2023-02-28T04:16:12;101099.91;;;-1.79;94.69
15634;BME280;14654;48.898;8.308;2023-02-28T04:18:38;101088.88;;;-1.79;94.43
15634;BME280;14654;48.898;8.308;2023-02-28T04:21:05;101094.13;;;-1.76;93.93
15634;BME280;14654;48.898;8.308;2023-02-28T04:23:30;101096.66;;;-1.76;94.34
15634;BME280;14654;48.898;8.308;2023-02-28T04:25:56;101095.88;;;-1.75;94.77
15634;BME280;14654;48.898;8.308;2023-02-28T04:28:21;101104.44;;;-1.73;94.25
15634;BME280;14654;48.898;8.308;2023-02-28T04:30:47;101098.66;;;-1.71;94.58
15634;BME280;14654;48.898;8.308;2023-02-28T04:33:12;101100.31;;;-1.71;94.22
15634;BME280;14654;48.898;8.308;2023-02-28T04:35:38;101102.94;;;-1.70;94.36
15634;BME280;14654;48.898;8.308;2023-02-28T04:38:03;101102.94;;;-1.70;94.27
15634;BME280;14654;48.898;8.308;2023-02-28T04:40:28;101100.41;;;-1.70;94.63
15634;BME280;14654;48.898;8.308;2023-02-28T04:42:54;101096.91;;;-1.72;93.40
15634;BME280;14654;48.898;8.308;2023-02-28T04:45:19;101092.38;;;-1.77;94.33
15634;BME280;14654;48.898;8.308;2023-02-28T04:47:44;101099.81;;;-1.80;94.72
15634;BME280;14654;48.898;8.308;2023-02-28T04:50:10;101092.81;;;-1.85;94.61
15634;BME280;14654;48.898;8.308;2023-02-28T04:52:35;101095.06;;;-1.91;95.01
15634;BME280;14654;48.898;8.308;2023-02-28T04:55:00;101099.16;;;-1.93;94.82
15634;BME280;14654;48.898;8.308;2023-02-28T04:57:27;101101.69;;;-1.93;93.89
15634;BME280;14654;48.898;8.308;2023-02-28T04:59:52;101103.16;;;-1.96;94.09
15634;BME280;14654;48.898;8.308;2023-02-28T05:02:17;101101.34;;;-1.99;94.28
15634;BME280;14654;48.898;8.308;2023-02-28T05:04:42;101104.84;;;-1.97;94.51
15634;BME280;14654;48.898;8.308;2023-02-28T05:07:08;101109.91;;;-1.97;94.29
15634;BME280;14654;48.898;8.308;2023-02-28T05:09:33;101114.28;;;-1.94;94.07
15634;BME280;14654;48.898;8.308;2023-02-28T05:11:58;101114.28;;;-1.94;93.87
15634;BME280;14654;48.898;8.308;2023-02-28T05:14:24;101115.97;;;-1.95;93.71
15634;BME280;14654;48.898;8.308;2023-02-28T05:16:49;101112.47;;;-1.97;93.81
15634;BME280;14654;48.898;8.308;2023-02-28T05:19:14;101118.50;;;-1.95;93.63
15634;BME280;14654;48.898;8.308;2023-02-28T05:21:41;101109.31;;;-1.93;93.81
15634;BME280;14654;48.898;8.308;2023-02-28T05:24:13;101118.50;;;-1.95;93.75
15634;BME280;14654;48.898;8.308;2023-02-28T05:26:41;101114.13;;;-1.97;94.46
15634;BME280;14654;48.898;8.308;2023-02-28T05:29:07;101120.78;;;-2.00;94.53
15634;BME280;14654;48.898;8.308;2023-02-28T05:31:33;101118.94;;;-2.02;94.35
15634;BME280;14654;48.898;8.308;2023-02-28T05:33:58;101112.66;;;-2.09;94.43
15634;BME280;14654;48.898;8.308;2023-02-28T05:36:24;101110.81;;;-2.11;94.91
15634;BME280;14654;48.898;8.308;2023-02-28T05:38:50;101112.38;;;-2.13;94.84
15634;BME280;14654;48.898;8.308;2023-02-28T05:41:16;101112.38;;;-2.13;95.46
15634;BME280;14654;48.898;8.308;2023-02-28T05:43:42;101104.88;;;-2.12;95.85
15634;BME280;14654;48.898;8.308;2023-02-28T05:46:09;101100.75;;;-2.10;96.21
15634;BME280;14654;48.898;8.308;2023-02-28T05:48:36;101105.91;;;-2.08;96.55
15634;BME280;14654;48.898;8.308;2023-02-28T05:51:02;101102.66;;;-2.06;96.67
15634;BME280;14654;48.898;8.308;2023-02-28T05:53:28;101106.88;;;-2.06;96.71
15634;BME280;14654;48.898;8.308;2023-02-28T05:55:53;101110.53;;;-2.01;96.65
15634;BME280;14654;48.898;8.308;2023-02-28T05:58:19;101120.69;;;-2.01;96.83
15634;BME280;14654;48.898;8.308;2023-02-28T06:00:44;101117.47;;;-1.98;96.18
15634;BME280;14654;48.898;8.308;2023-02-28T06:03:10;101112.63;;;-1.94;96.26
15634;BME280;14654;48.898;8.308;2023-02-28T06:05:36;101116.19;;;-1.90;95.94
15634;BME280;14654;48.898;8.308;2023-02-28T06:08:01;101120.41;;;-1.91;96.43
15634;BME280;14654;48.898;8.308;2023-02-28T06:10:26;101122.31;;;-1.87;95.74
15634;BME280;14654;48.898;8.308;2023-02-28T06:12:51;101121.53;;;-1.86;95.73
15634;BME280;14654;48.898;8.308;2023-02-28T06:15:17;101123.38;;;-1.83;95.67
15634;BME280;14654;48.898;8.308;2023-02-28T06:17:44;101127.66;;;-1.82;95.38
15634;BME280;14654;48.898;8.308;2023-02-28T06:20:10;101125.19;;;-1.80;95.46
15634;BME280;14654;48.898;8.308;2023-02-28T06:22:38;101127.03;;;-1.78;95.63
15634;BME280;14654;48.898;8.308;2023-02-28T06:25:05;101136.38;;;-1.77;95.60
15634;BME280;14654;48.898;8.308;2023-02-28T06:27:32;101127.25;;;-1.73;96.02
15634;BME280;14654;48.898;8.308;2023-02-28T06:29:57;101130.94;;;-1.68;95.40
15634;BME280;14654;48.898;8.308;2023-02-28T06:32:22;101133.72;;;-1.63;94.52
15634;BME280;14654;48.898;8.308;2023-02-28T06:34:48;101133.91;;;-1.60;94.89
15634;BME280;14654;48.898;8.308;2023-02-28T06:37:14;101132.38;;;-1.57;94.31
15634;BME280;14654;48.898;8.308;2023-02-28T06:39:39;101135.88;;;-1.55;94.24
15634;BME280;14654;48.898;8.308;2023-02-28T06:42:05;101137.09;;;-1.48;94.17
15634;BME280;14654;48.898;8.308;2023-02-28T06:44:30;101148.31;;;-1.44;93.72
15634;BME280;14654;48.898;8.308;2023-02-28T06:47:00;101143.38;;;-1.41;93.94
15634;BME280;14654;48.898;8.308;2023-02-28T06:49:28;101143.72;;;-1.35;93.98
15634;BME280;14654;48.898;8.308;2023-02-28T06:51:54;101156.75;;;-1.29;93.54
15634;BME280;14654;48.898;8.308;2023-02-28T06:54:19;101151.72;;;-1.27;93.34
15634;BME280;14654;48.898;8.308;2023-02-28T06:56:45;101156.97;;;-1.24;93.14
15634;BME280;14654;48.898;8.308;2023-02-28T06:59:10;101163.16;;;-1.19;92.43
15634;BME280;14654;48.898;8.308;2023-02-28T07:01:35;101161.75;;;-1.14;92.81
15634;BME280;14654;48.898;8.308;2023-02-28T07:04:01;101160.22;;;-1.10;92.84
15634;BME280;14654;48.898;8.308;2023-02-28T07:06:27;101164.84;;;-1.03;92.75
15634;BME280;14654;48.898;8.308;2023-02-28T07:08:53;101172.88;;;-0.95;91.67
15634;BME280;14654;48.898;8.308;2023-02-28T07:11:20;101156.06;;;-0.93;91.37
15634;BME280;14654;48.898;8.308;2023-02-28T07:13:46;101163.19;;;-0.86;91.47
15634;BME280;14654;48.898;8.308;2023-02-28T07:16:12;101159.78;;;-0.86;90.92
15634;BME280;14654;48.898;8.308;2023-02-28T07:18:39;101168.44;;;-0.83;90.61
15634;BME280;14654;48.898;8.308;2023-02-28T07:21:06;101161.66;;;-0.82;90.01
15634;BME280;14654;48.898;8.308;2023-02-28T07:23:32;101164.59;;;-0.74;90.39
15634;BME280;14654;48.898;8.308;2023-02-28T07:25:58;101157.94;;;-0.72;89.48
15634;BME280;14654;48.898;8.308;2023-02-28T07:28:23;101179.38;;;-0.67;88.89
15634;BME280;14654;48.898;8.308;2023-02-28T07:30:49;101170.16;;;-0.65;88.50
15634;BME280;14654;48.898;8.308;2023-02-28T07:33:14;101170.16;;;-0.65;89.31
15634;BME280;14654;48.898;8.308;2023-02-28T07:35:40;101163.63;;;-0.60;88.51
15634;BME280;14654;48.898;8.308;2023-02-28T07:38:06;101164.84;;;-0.53;87.91
15634;BME280;14654;48.898;8.308;2023-02-28T07:40:33;101159.25;;;-0.46;87.13
15634;BME280;14654;48.898;8.308;2023-02-28T07:43:00;101166.53;;;-0.36;87.40
15634;BME280;14654;48.898;8.308;2023-02-28T07:45:26;101157.25;;;-0.35;87.26
15634;BME280;14654;48.898;8.308;2023-02-28T07:47:53;101177.88;;;-0.29;87.18
15634;BME280;14654;48.898;8.308;2023-02-28T07:50:19;101166.13;;;-0.27;86.86
15634;BME280;14654;48.898;8.308;2023-02-28T07:52:44;101166.13;;;-0.27;86.22
15634;BME280;14654;48.898;8.308;2023-02-28T07:55:09;101171.94;;;-0.29;86.08
15634;BME280;14654;48.898;8.308;2023-02-28T07:57:35;101174.78;;;-0.23;86.44
15634;BME280;14654;48.898;8.308;2023-02-28T08:00:03;101178.63;;;-0.13;86.52
15634;BME280;14654;48.898;8.308;2023-02-28T08:02:28;101170.22;;;-0.12;85.88
15634;BME280;14654;48.898;8.308;2023-02-28T08:04:53;101163.31;;;-0.15;85.99
15634;BME280;14654;48.898;8.308;2023-02-28T08:07:19;101168.41;;;-0.15;85.32
15634;BME280;14654;48.898;8.308;2023-02-28T08:09:44;101171.16;;;-0.10;85.93
15634;BME280;14654;48.898;8.308;2023-02-28T08:12:10;101169.63;;;-0.07;85.88
15634;BME280;14654;48.898;8.308;2023-02-28T08:14:36;101197.63;;;-0.07;85.54
15634;BME280;14654;48.898;8.308;2023-02-28T08:17:03;101177.56;;;-0.01;85.67
15634;BME280;14654;48.898;8.308;2023-02-28T08:19:29;101185.44;;;0.04;85.82
15634;BME280;14654;48.898;8.308;2023-02-28T08:21:54;101192.09;;;0.02;84.81
15634;BME280;14654;48.898;8.308;2023-02-28T08:24:20;101179.69;;;-0.10;84.69
15634;BME280;14654;48.898;8.308;2023-02-28T08:26:45;101182.06;;;-0.13;85.10
15634;BME280;14654;48.898;8.308;2023-02-28T08:29:10;101185.56;;;-0.11;85.24
15634;BME280;14654;48.898;8.308;2023-02-28T08:31:36;101182.28;;;-0.08;85.34
15634;BME280;14654;48.898;8.308;2023-02-28T08:34:13;101190.09;;;-0.05;85.70
15634;BME280;14654;48.898;8.308;2023-02-28T08:36:38;101181.72;;;-0.03;85.56
15634;BME280;14654;48.898;8.308;2023-02-28T08:39:05;101197.19;;;0.02;84.38
15634;BME280;14654;48.898;8.308;2023-02-28T08:41:31;101195.53;;;0.03;84.79
15634;BME280;14654;48.898;8.308;2023-02-28T08:43:56;101196.63;;;0.08;84.28
15634;BME280;14654;48.898;8.308;2023-02-28T08:46:22;101186.59;;;0.11;84.02
15634;BME280;14654;48.898;8.308;2023-02-28T08:48:51;101194.97;;;0.08;83.88
15634;BME280;14654;48.898;8.308;2023-02-28T08:51:17;101192.25;;;0.05;84.58
15634;BME280;14654;48.898;8.308;2023-02-28T08:53:46;101192.41;;;0.08;84.27
15634;BME280;14654;48.898;8.308;2023-02-28T08:56:15;101194.06;;;0.08;84.38
15634;BME280;14654;48.898;8.308;2023-02-28T08:58:42;101193.16;;;0.06;83.50
15634;BME280;14654;48.898;8.308;2023-02-28T09:01:14;101193.44;;;0.12;83.51
15634;BME280;14654;48.898;8.308;2023-02-28T09:03:40;101192.06;;;0.19;84.04
15634;BME280;14654;48.898;8.308;2023-02-28T09:06:06;101193.38;;;0.28;83.25
15634;BME280;14654;48.898;8.308;2023-02-28T09:08:32;101205.31;;;0.29;82.38
15634;BME280;14654;48.898;8.308;2023-02-28T09:10:58;101191.69;;;0.47;82.74
15634;BME280;14654;48.898;8.308;2023-02-28T09:13:25;101191.53;;;0.62;82.26
15634;BME280;14654;48.898;8.308;2023-02-28T09:15:51;101185.25;;;0.73;81.94
15634;BME280;14654;48.898;8.308;2023-02-28T09:18:17;101188.66;;;0.74;81.31
15634;BME280;14654;48.898;8.308;2023-02-28T09:20:43;101193.78;;;0.74;81.28
15634;BME280;14654;48.898;8.308;2023-02-28T09:23:09;101180.63;;;0.65;80.65
15634;BME280;14654;48.898;8.308;2023-02-28T09:25:36;101187.16;;;0.59;80.39
15634;BME280;14654;48.898;8.308;2023-02-28T09:28:02;101182.81;;;0.57;81.35
15634;BME280;14654;48.898;8.308;2023-02-28T09:30:28;101180.03;;;0.70;81.50
15634;BME280;14654;48.898;8.308;2023-02-28T09:32:53;101178.31;;;0.89;80.24
15634;BME280;14654;48.898;8.308;2023-02-28T09:35:23;101185.63;;;1.01;80.20
15634;BME280;14654;48.898;8.308;2023-02-28T09:37:50;101179.84;;;1.05;80.22
15634;BME280;14654;48.898;8.308;2023-02-28T09:40:18;101176.69;;;1.11;79.42
15634;BME280;14654;48.898;8.308;2023-02-28T09:42:46;101178.25;;;1.07;79.50
15634;BME280;14654;48.898;8.308;2023-02-28T09:45:27;101177.69;;;1.14;79.41
15634;BME280;14654;48.898;8.308;2023-02-28T09:47:56;101185.03;;;1.26;78.65
15634;BME280;14654;48.898;8.308;2023-02-28T09:52:52;101198.78;;;1.30;78.05
15634;BME280;14654;48.898;8.308;2023-02-28T09:57:53;101191.78;;;1.45;77.50
15634;BME280;14654;48.898;8.308;2023-02-28T10:00:35;101186.63;;;1.63;77.44
15634;BME280;14654;48.898;8.308;2023-02-28T10:08:16;101193.66;;;2.11;75.48
15634;BME280;14654;48.898;8.308;2023-02-28T10:10:45;101198.31;;;2.01;74.81
15634;BME280;14654;48.898;8.308;2023-02-28T10:13:49;101196.03;;;2.07;74.75
15634;BME280;14654;48.898;8.308;2023-02-28T10:16:26;101196.47;;;1.96;74.69
15634;BME280;14654;48.898;8.308;2023-02-28T10:19:13;101200.50;;;1.91;74.62
15634;BME280;14654;48.898;8.308;2023-02-28T10:21:57;101203.44;;;2.01;74.13
15634;BME280;14654;48.898;8.308;2023-02-28T10:29:44;101206.44;;;1.90;74.50
15634;BME280;14654;48.898;8.308;2023-02-28T10:32:14;101204.13;;;1.96;74.19
15634;BME280;14654;48.898;8.308;2023-02-28T10:34:41;101201.28;;;2.10;74.20
15634;BME280;14654;48.898;8.308;2023-02-28T10:37:07;101200.63;;;2.37;74.06
15634;BME280;14654;48.898;8.308;2023-02-28T10:42:05;101204.63;;;2.30;72.51
15634;BME280;14654;48.898;8.308;2023-02-28T10:44:30;101204.41;;;2.47;72.19
15634;BME280;14654;48.898;8.308;2023-02-28T10:46:56;101209.75;;;2.53;71.43
15634;BME280;14654;48.898;8.308;2023-02-28T10:49:28;101195.13;;;2.49;71.11
15634;BME280;14654;48.898;8.308;2023-02-28T10:51:56;101206.84;;;2.66;70.92
15634;BME280;14654;48.898;8.308;2023-02-28T10:54:30;101209.53;;;2.69;70.06
15634;BME280;14654;48.898;8.308;2023-02-28T10:57:21;101208.22;;;2.81;69.77
15634;BME280;14654;48.898;8.308;2023-02-28T10:59:53;101203.13;;;2.81;69.70
15634;BME280;14654;48.898;8.308;2023-02-28T11:02:31;101214.19;;;2.80;69.19
15634;BME280;14654;48.898;8.308;2023-02-28T11:04:57;101208.63;;;2.92;69.35
15634;BME280;14654;48.898;8.308;2023-02-28T11:07:25;101197.84;;;2.99;68.70
15634;BME280;14654;48.898;8.308;2023-02-28T11:09:52;101209.53;;;2.92;69.00
15634;BME280;14654;48.898;8.308;2023-02-28T11:12:34;101200.53;;;3.02;68.57
15634;BME280;14654;48.898;8.308;2023-02-28T11:15:04;101197.47;;;3.12;68.71
15634;BME280;14654;48.898;8.308;2023-02-28T11:17:32;101199.75;;;3.29;68.92
15634;BME280;14654;48.898;8.308;2023-02-28T11:20:04;101196.78;;;3.16;68.72
15634;BME280;14654;48.898;8.308;2023-02-28T11:22:35;101195.88;;;3.40;68.91
15634;BME280;14654;48.898;8.308;2023-02-28T11:25:09;101191.97;;;3.50;68.26
15634;BME280;14654;48.898;8.308;2023-02-28T11:27:43;101187.50;;;3.44;68.46
15634;BME280;14654;48.898;8.308;2023-02-28T11:30:32;101191.81;;;3.45;67.97
15634;BME280;14654;48.898;8.308;2023-02-28T11:32:59;101197.34;;;3.58;67.62
15634;BME280;14654;48.898;8.308;2023-02-28T11:35:31;101200.63;;;3.54;67.86
15634;BME280;14654;48.898;8.308;2023-02-28T11:38:00;101174.16;;;3.79;67.46
15634;BME280;14654;48.898;8.308;2023-02-28T11:48:56;101172.31;;;4.01;66.48
15634;BME280;14654;48.898;8.308;2023-02-28T11:51:35;101175.38;;;3.90;66.40
15634;BME280;14654;48.898;8.308;2023-02-28T11:56:43;101182.84;;;4.37;65.62
15634;BME280;14654;48.898;8.308;2023-02-28T12:02:06;101189.03;;;4.44;65.57
15634;BME280;14654;48.898;8.308;2023-02-28T12:10:24;101174.25;;;4.35;65.09
15634;BME280;14654;48.898;8.308;2023-02-28T12:13:15;101174.81;;;4.26;65.18
15634;BME280;14654;48.898;8.308;2023-02-28T12:16:16;101175.81;;;4.32;65.18
15634;BME280;14654;48.898;8.308;2023-02-28T12:19:01;101172.50;;;4.34;65.26
15634;BME280;14654;48.898;8.308;2023-02-28T12:26:45;101159.72;;;4.65;65.04
15634;BME280;14654;48.898;8.308;2023-02-28T12:31:45;101159.84;;;4.69;65.75
15634;BME280;14654;48.898;8.308;2023-02-28T12:34:17;101142.69;;;4.67;65.95
15634;BME280;14654;48.898;8.308;2023-02-28T12:36:47;101142.97;;;4.47;65.97
15634;BME280;14654;48.898;8.308;2023-02-28T12:39:35;101154.72;;;4.40;65.70
15634;BME280;14654;48.898;8.308;2023-02-28T12:42:05;101144.34;;;4.36;66.00
15634;BME280;14654;48.898;8.308;2023-02-28T12:47:16;101136.31;;;4.25;66.47
15634;BME280;14654;48.898;8.308;2023-02-28T12:52:25;101138.72;;;4.19;66.82
15634;BME280;14654;48.898;8.308;2023-02-28T12:58:20;101132.66;;;4.17;66.76
15634;BME280;14654;48.898;8.308;2023-02-28T13:09:56;101127.19;;;4.06;67.55
15634;BME280;14654;48.898;8.308;2023-02-28T13:12:23;101138.81;;;3.94;67.64
15634;BME280;14654;48.898;8.308;2023-02-28T13:14:49;101111.41;;;3.92;67.97
15634;BME280;14654;48.898;8.308;2023-02-28T13:17:19;101120.75;;;3.90;67.99
15634;BME280;14654;48.898;8.308;2023-02-28T13:22:44;101115.78;;;3.96;68.03
15634;BME280;14654;48.898;8.308;2023-02-28T13:27:52;101112.28;;;4.20;67.36
15634;BME280;14654;48.898;8.308;2023-02-28T13:33:33;101117.56;;;4.26;66.77
15634;BME280;14654;48.898;8.308;2023-02-28T13:44:04;101120.31;;;4.32;66.87
15634;BME280;14654;48.898;8.308;2023-02-28T13:46:32;101110.16;;;4.35;66.52
15634;BME280;14654;48.898;8.308;2023-02-28T13:52:12;101110.03;;;4.92;65.19
15634;BME280;14654;48.898;8.308;2023-02-28T14:00:28;101112.88;;;5.01;65.28
15634;BME280;14654;48.898;8.308;2023-02-28T14:05:36;101112.16;;;5.07;65.54
15634;BME280;14654;48.898;8.308;2023-02-28T14:08:07;101108.78;;;5.09;65.18
15634;BME280;14654;48.898;8.308;2023-02-28T14:10:46;101102.94;;;5.13;65.37
15634;BME280;14654;48.898;8.308;2023-02-28T14:15:58;101115.97;;;4.89;65.70
15634;BME280;14654;48.898;8.308;2023-02-28T14:18:32;101115.66;;;4.78;66.00
15634;BME280;14654;48.898;8.308;2023-02-28T14:23:39;101107.84;;;4.73;65.91
15634;BME280;14654;48.898;8.308;2023-02-28T14:26:23;101102.69;;;4.73;66.04
15634;BME280;14654;48.898;8.308;2023-02-28T14:32:06;101108.72;;;4.74;66.67
15634;BME280;14654;48.898;8.308;2023-02-28T14:37:13;101099.09;;;4.67;67.16
15634;BME280;14654;48.898;8.308;2023-02-28T14:39:41;101105.78;;;4.62;66.95
15634;BME280;14654;48.898;8.308;2023-02-28T14:42:34;101121.81;;;4.54;67.82
15634;BME280;14654;48.898;8.308;2023-02-28T14:45:00;101102.81;;;4.46;67.39
15634;BME280;14654;48.898;8.308;2023-02-28T14:47:30;101102.72;;;4.43;67.87
15634;BME280;14654;48.898;8.308;2023-02-28T14:49:57;101102.59;;;4.38;67.57
15634;BME280;14654;48.898;8.308;2023-02-28T14:52:28;101093.81;;;4.32;68.13
15634;BME280;14654;48.898;8.308;2023-02-28T14:55:00;101097.28;;;4.34;68.17
15634;BME280;14654;48.898;8.308;2023-02-28T14:57:40;101098.31;;;4.39;68.89
15634;BME280;14654;48.898;8.308;2023-02-28T15:02:38;101096.38;;;4.32;68.13
15634;BME280;14654;48.898;8.308;2023-02-28T15:05:21;101099.81;;;4.32;68.32
15634;BME280;14654;48.898;8.308;2023-02-28T15:07:49;101081.97;;;4.35;68.11
15634;BME280;14654;48.898;8.308;2023-02-28T15:10:27;101088.88;;;4.38;68.19
15634;BME280;14654;48.898;8.308;2023-02-28T15:12:57;101083.75;;;4.38;68.50
15634;BME280;14654;48.898;8.308;2023-02-28T15:15:39;101100.88;;;4.39;68.55